Time;durP1;ratioP1;P1;durP2;ratioP2;P2;SDS_P1;SDS_P2;PMS_P1;PMS_P2;Temp;Humidity;BMP_temperature;BMP_pressure;BME280_temperature;BME280_humidity;BME280_pressure;Samples;Min_cycle;Max_cycle;Signal;HPM_P1;HPM_P2
2022/01/02 00:01:20;;;;;;;60.70;48.38;;;22.00;77.60;;;;;;6301538;27;88675;-71
2022/01/02 00:04:24;;;;;;;60.63;48.50;;;22.00;77.60;;;;;;6309327;27;87920;-71
2022/01/02 00:07:30;;;;;;;58.03;47.28;;;22.00;77.60;;;;;;6306466;27;89216;-71
2022/01/02 00:10:34;;;;;;;58.25;47.55;;;22.00;77.70;;;;;;6281702;27;90097;-71
2022/01/02 00:13:40;;;;;;;59.65;47.58;;;22.00;77.60;;;;;;6294934;27;89150;-72
2022/01/02 00:16:42;;;;;;;55.67;45.47;;;22.00;77.60;;;;;;6293637;27;90306;-71
2022/01/02 00:19:52;;;;;;;57.00;46.50;;;22.00;77.50;;;;;;6288868;27;88973;-72
2022/01/02 00:22:56;;;;;;;57.30;45.03;;;22.00;77.60;;;;;;6282661;27;89047;-71
2022/01/02 00:26:04;;;;;;;55.50;44.47;;;22.00;77.50;;;;;;6283580;27;89027;-71
2022/01/02 00:29:08;;;;;;;57.60;45.72;;;22.00;77.50;;;;;;6294383;27;88853;-71
2022/01/02 00:32:11;;;;;;;55.65;44.25;;;21.90;77.40;;;;;;6288253;27;88349;-72
2022/01/02 00:35:13;;;;;;;52.13;42.45;;;22.00;77.50;;;;;;6302638;27;89138;-71
2022/01/02 00:38:21;;;;;;;52.08;42.40;;;22.00;77.60;;;;;;6281202;27;87923;-72
2022/01/02 00:41:27;;;;;;;52.53;42.70;;;21.90;77.40;;;;;;6300125;27;90019;-72
2022/01/02 00:44:38;;;;;;;51.28;41.47;;;21.90;77.50;;;;;;6319090;27;89051;-70
2022/01/02 00:47:50;;;;;;;50.92;41.45;;;21.90;77.40;;;;;;6284779;27;88994;-71
2022/01/02 00:50:56;;;;;;;49.53;40.75;;;21.90;77.50;;;;;;6294485;27;89254;-72
2022/01/02 00:54:02;;;;;;;51.50;41.63;;;21.90;77.50;;;;;;6290142;27;87948;-71
2022/01/02 00:57:07;;;;;;;48.70;40.13;;;21.90;77.60;;;;;;6299994;27;89212;-71
2022/01/02 01:00:12;;;;;;;47.95;39.83;;;21.90;77.50;;;;;;6283406;27;89099;-71
2022/01/02 01:03:26;;;;;;;46.85;38.25;;;21.80;77.50;;;;;;6307577;27;87381;-71
2022/01/02 01:06:34;;;;;;;47.13;38.03;;;21.90;77.60;;;;;;6291719;27;89141;-72
2022/01/02 01:09:37;;;;;;;45.63;37.22;;;21.90;77.50;;;;;;6294516;27;88842;-71
2022/01/02 01:12:39;;;;;;;46.22;39.08;;;21.90;77.40;;;;;;6300978;27;90186;-71
2022/01/02 01:15:42;;;;;;;45.28;36.92;;;21.90;77.40;;;;;;6282488;27;89060;-71
2022/01/02 01:18:44;;;;;;;44.80;36.20;;;21.90;77.30;;;;;;6300828;27;89209;-71
2022/01/02 01:21:46;;;;;;;44.45;36.38;;;21.90;77.30;;;;;;6306030;27;89047;-71
2022/01/02 01:24:49;;;;;;;44.60;36.08;;;21.90;77.30;;;;;;6308190;27;89263;-73
2022/01/02 01:27:54;;;;;;;42.42;35.53;;;21.90;77.30;;;;;;6283094;27;89152;-70
2022/01/02 01:30:58;;;;;;;41.30;34.63;;;21.90;77.40;;;;;;6294827;27;89028;-72
2022/01/02 01:34:00;;;;;;;43.28;35.25;;;21.80;77.40;;;;;;6296378;27;88356;-71
2022/01/02 01:37:02;;;;;;;38.90;33.25;;;21.80;77.40;;;;;;6292646;27;88954;-71
2022/01/02 01:40:08;;;;;;;38.78;32.80;;;21.80;77.40;;;;;;6291215;27;89384;-70
2022/01/02 01:43:13;;;;;;;41.50;34.33;;;21.80;77.40;;;;;;6316504;27;90156;-71
2022/01/02 01:46:15;;;;;;;40.25;33.10;;;21.80;77.40;;;;;;6281373;27;89050;-70
2022/01/02 01:49:18;;;;;;;39.30;32.83;;;21.80;77.40;;;;;;6281239;27;89063;-70
2022/01/02 01:52:20;;;;;;;36.90;31.33;;;21.80;77.40;;;;;;6301749;27;88220;-71
2022/01/02 01:55:24;;;;;;;37.53;31.27;;;21.80;77.40;;;;;;6285244;27;87968;-71
2022/01/02 01:58:26;;;;;;;36.83;31.15;;;21.80;77.50;;;;;;6287531;27;89115;-70
2022/01/02 02:01:28;;;;;;;35.70;29.75;;;21.80;77.50;;;;;;6300452;27;89050;-71
2022/01/02 02:04:30;;;;;;;35.88;30.90;;;21.80;77.50;;;;;;6298322;27;88174;-71
2022/01/02 02:07:39;;;;;;;34.13;29.50;;;21.80;77.40;;;;;;6291424;27;89197;-70
2022/01/02 02:10:46;;;;;;;33.78;28.50;;;21.80;77.40;;;;;;6309775;27;89100;-71
2022/01/02 02:13:49;;;;;;;34.63;28.98;;;21.80;77.40;;;;;;6283829;27;90084;-71
2022/01/02 02:16:51;;;;;;;33.45;28.02;;;21.80;77.30;;;;;;6312077;27;89119;-71
2022/01/02 02:19:59;;;;;;;32.97;27.40;;;21.80;78.20;;;;;;6299008;27;88919;-72
2022/01/02 02:23:20;;;;;;;32.88;27.63;;;21.80;77.30;;;;;;6294337;27;89080;-70
2022/01/02 02:26:22;;;;;;;33.40;28.13;;;21.70;77.20;;;;;;6284381;27;89025;-71
2022/01/02 02:29:24;;;;;;;31.88;26.80;;;21.70;77.30;;;;;;6294752;27;89158;-71
2022/01/02 02:32:26;;;;;;;31.42;27.27;;;21.70;77.90;;;;;;6296406;27;89110;-71
2022/01/02 02:35:31;;;;;;;29.60;26.08;;;21.70;77.30;;;;;;6300841;27;88587;-71
2022/01/02 02:38:33;;;;;;;30.10;26.52;;;21.70;77.40;;;;;;6308818;27;89098;-71
2022/01/02 02:41:38;;;;;;;30.77;25.95;;;21.70;77.40;;;;;;6296495;27;88932;-70
2022/01/02 02:44:40;;;;;;;27.95;24.70;;;21.70;77.40;;;;;;6299658;27;90019;-71
2022/01/02 02:51:05;;;;;;;27.48;23.30;;;21.70;77.40;;;;;;6297033;27;87277;-70
2022/01/02 02:54:08;;;;;;;27.70;24.02;;;21.70;77.40;;;;;;6310564;27;89185;-71
2022/01/02 02:57:13;;;;;;;26.83;23.52;;;21.70;77.40;;;;;;6295116;27;89102;-70
2022/01/02 03:00:15;;;;;;;26.08;22.83;;;21.70;77.30;;;;;;6299111;27;89048;-71
2022/01/02 03:03:17;;;;;;;25.80;22.38;;;21.70;77.20;;;;;;6283045;27;88938;-70
2022/01/02 03:06:21;;;;;;;24.75;22.15;;;21.70;77.30;;;;;;6307717;27;87251;-71
2022/01/02 03:09:37;;;;;;;26.50;22.63;;;21.70;77.20;;;;;;6309006;27;89190;-71
2022/01/02 03:12:39;;;;;;;25.23;21.77;;;21.70;77.20;;;;;;6308194;27;89092;-70
2022/01/02 03:15:41;;;;;;;24.38;21.48;;;21.70;77.20;;;;;;6305619;27;89813;-71
2022/01/02 03:18:43;;;;;;;24.35;20.75;;;21.70;77.20;;;;;;6302750;27;89095;-70
2022/01/02 03:21:47;;;;;;;23.73;21.05;;;21.70;77.30;;;;;;6295274;27;89071;-71
2022/01/02 03:24:51;;;;;;;24.42;21.25;;;21.70;77.30;;;;;;6300982;27;89048;-70
2022/01/02 03:27:53;;;;;;;23.63;20.58;;;21.70;77.30;;;;;;6304152;27;89046;-70
2022/01/02 03:30:55;;;;;;;23.30;20.38;;;21.70;77.30;;;;;;6306150;27;88986;-71
2022/01/02 03:33:57;;;;;;;23.83;19.95;;;21.60;77.30;;;;;;6298149;27;88025;-71
2022/01/02 03:37:01;;;;;;;22.95;20.48;;;21.60;77.30;;;;;;6294184;27;88549;-71
2022/01/02 03:40:05;;;;;;;22.17;19.23;;;21.60;77.30;;;;;;6308994;27;88891;-71
2022/01/02 03:43:08;;;;;;;21.58;19.10;;;21.60;77.30;;;;;;6303835;27;87991;-71
2022/01/02 03:46:10;;;;;;;21.50;18.80;;;21.60;77.20;;;;;;6298464;27;90103;-71
2022/01/02 03:49:30;;;;;;;21.23;18.92;;;21.60;77.30;;;;;;6297428;27;87988;-71
2022/01/02 03:52:33;;;;;;;20.98;18.52;;;21.60;77.20;;;;;;6283132;27;89065;-71
2022/01/02 03:55:36;;;;;;;21.52;18.67;;;21.60;77.20;;;;;;6291476;27;89015;-71
2022/01/02 03:58:38;;;;;;;19.45;17.35;;;21.60;77.20;;;;;;6295529;27;89074;-71
2022/01/02 04:01:40;;;;;;;19.73;17.63;;;21.60;77.10;;;;;;6297011;27;89091;-71
2022/01/02 04:04:42;;;;;;;20.33;17.55;;;21.60;77.10;;;;;;6293270;27;89044;-70
2022/01/02 04:07:46;;;;;;;19.52;17.42;;;21.60;77.10;;;;;;6296184;27;88679;-70
2022/01/02 04:10:48;;;;;;;19.90;17.75;;;21.60;77.20;;;;;;6294824;27;89147;-71
2022/01/02 04:13:50;;;;;;;17.73;15.77;;;21.60;77.20;;;;;;6283566;27;89052;-71
2022/01/02 04:16:52;;;;;;;18.23;16.13;;;21.60;77.20;;;;;;6303781;27;90033;-71
2022/01/02 04:19:54;;;;;;;19.08;16.50;;;21.60;77.20;;;;;;6308613;27;89144;-71
2022/01/02 04:22:58;;;;;;;17.10;15.27;;;21.60;77.20;;;;;;6295008;27;89086;-68
2022/01/02 04:26:00;;;;;;;17.63;15.50;;;21.60;77.20;;;;;;6301067;27;89180;-71
2022/01/02 04:29:02;;;;;;;17.52;15.63;;;21.60;77.30;;;;;;6296813;27;89220;-71
2022/01/02 04:32:04;;;;;;;17.98;16.08;;;21.50;77.20;;;;;;6302468;27;89493;-71
2022/01/02 04:35:07;;;;;;;17.30;15.38;;;21.50;77.20;;;;;;6294745;27;88048;-70
2022/01/02 04:38:10;;;;;;;16.63;14.68;;;21.50;77.20;;;;;;6284406;27;87180;-69
2022/01/02 04:41:12;;;;;;;16.17;14.48;;;21.50;77.20;;;;;;6302563;27;89747;-71
2022/01/02 04:44:14;;;;;;;15.45;13.80;;;21.60;77.20;;;;;;6286670;27;87896;-70
2022/01/02 04:47:16;;;;;;;16.02;14.32;;;21.50;77.20;;;;;;6282900;27;90019;-68
2022/01/02 04:50:18;;;;;;;14.77;13.27;;;21.50;77.20;;;;;;6293298;27;87896;-71
2022/01/02 04:53:22;;;;;;;15.05;13.45;;;21.50;77.10;;;;;;6292814;27;89271;-71
2022/01/02 04:56:24;;;;;;;15.70;14.00;;;21.50;77.10;;;;;;6292050;27;89047;-71
2022/01/02 04:59:26;;;;;;;15.27;13.68;;;21.50;77.10;;;;;;6295215;27;88983;-71
2022/01/02 05:02:28;;;;;;;15.18;13.00;;;21.50;77.10;;;;;;6306956;27;88987;-71
2022/01/02 05:05:30;;;;;;;15.05;13.40;;;21.50;77.10;;;;;;6306317;27;89503;-70
2022/01/02 05:08:34;;;;;;;13.80;12.30;;;21.50;76.90;;;;;;6298068;27;88325;-71
2022/01/02 05:11:36;;;;;;;14.20;12.73;;;21.60;76.90;;;;;;6291177;27;88994;-71
2022/01/02 05:14:38;;;;;;;13.90;12.40;;;21.60;76.90;;;;;;6294840;27;89126;-71
2022/01/02 05:17:40;;;;;;;13.88;12.48;;;21.60;76.90;;;;;;6306601;27;89918;-71
2022/01/02 05:20:46;;;;;;;13.85;12.38;;;21.60;76.80;;;;;;6307199;27;88969;-71
2022/01/02 05:23:49;;;;;;;13.20;11.90;;;21.60;76.80;;;;;;6284090;27;89225;-71
2022/01/02 05:26:53;;;;;;;12.48;11.18;;;21.60;76.80;;;;;;6302033;27;89231;-71
2022/01/02 05:29:55;;;;;;;13.20;11.80;;;21.60;76.70;;;;;;6288626;27;89069;-70
2022/01/02 05:32:57;;;;;;;12.73;11.25;;;21.60;76.70;;;;;;6291548;27;88280;-71
2022/01/02 05:35:59;;;;;;;12.35;11.05;;;21.70;76.70;;;;;;6299379;27;89065;-70
2022/01/02 05:39:03;;;;;;;12.30;10.90;;;21.70;76.70;;;;;;6282963;27;87397;-70
2022/01/02 05:42:06;;;;;;;13.18;11.45;;;21.70;76.70;;;;;;6293096;27;88160;-70
2022/01/02 05:45:09;;;;;;;11.80;10.60;;;21.70;76.70;;;;;;6304745;27;89146;-71
2022/01/02 05:48:11;;;;;;;11.95;10.75;;;21.70;76.60;;;;;;6280011;27;89963;-70
2022/01/02 05:51:13;;;;;;;11.45;10.30;;;21.70;76.60;;;;;;6280124;27;89271;-71
2022/01/02 05:54:17;;;;;;;12.23;11.00;;;21.70;76.60;;;;;;6305112;27;88985;-71
2022/01/02 05:57:19;;;;;;;11.32;10.02;;;21.70;76.50;;;;;;6304496;27;89008;-71
2022/01/02 06:00:21;;;;;;;10.85;9.75;;;21.70;76.40;;;;;;6284046;27;89104;-71
2022/01/02 06:03:23;;;;;;;11.63;10.43;;;21.80;76.40;;;;;;6294753;27;89054;-70
2022/01/02 06:06:25;;;;;;;11.10;10.00;;;21.80;76.40;;;;;;6282313;27;87990;-71
2022/01/02 06:09:28;;;;;;;11.05;9.95;;;21.80;76.40;;;;;;6298001;27;88711;-71
2022/01/02 06:12:30;;;;;;;10.43;9.32;;;21.80;76.40;;;;;;6291552;27;89067;-71
2022/01/02 06:15:32;;;;;;;11.13;10.00;;;21.80;76.40;;;;;;6292687;27;89383;-70
2022/01/02 06:18:34;;;;;;;10.30;9.20;;;21.70;76.20;;;;;;6292939;27;88993;-71
2022/01/02 06:21:36;;;;;;;10.60;9.48;;;21.80;76.30;;;;;;6296407;27;89220;-71
2022/01/02 06:24:40;;;;;;;10.27;9.18;;;21.80;76.30;;;;;;6302997;27;89082;-71
2022/01/02 06:27:42;;;;;;;10.32;9.23;;;21.80;76.20;;;;;;6296056;27;89559;-70
2022/01/02 06:30:44;;;;;;;9.77;8.77;;;21.80;76.20;;;;;;6296030;27;89171;-69
2022/01/02 06:33:46;;;;;;;9.30;8.40;;;21.80;76.20;;;;;;6293238;27;89193;-71
2022/01/02 06:36:48;;;;;;;9.88;8.88;;;21.80;76.10;;;;;;6305462;27;89059;-71
2022/01/02 06:39:52;;;;;;;9.27;8.25;;;21.80;76.10;;;;;;6307561;27;88792;-71
2022/01/02 06:42:54;;;;;;;9.15;8.25;;;21.80;76.10;;;;;;6283523;27;87924;-72
2022/01/02 06:45:56;;;;;;;9.10;8.20;;;21.80;76.20;;;;;;6296139;27;89104;-71
2022/01/02 06:48:58;;;;;;;9.30;8.40;;;21.70;76.10;;;;;;6286390;27;90078;-71
2022/01/02 06:52:00;;;;;;;8.95;8.10;;;21.70;76.10;;;;;;6291616;27;87945;-71
2022/01/02 06:55:04;;;;;;;9.60;8.60;;;21.80;76.20;;;;;;6290768;27;88252;-71
2022/01/02 06:58:06;;;;;;;9.15;8.25;;;21.70;76.10;;;;;;6299066;27;89333;-70
2022/01/02 07:01:08;;;;;;;9.00;8.10;;;21.70;76.10;;;;;;6297665;27;89036;-72
2022/01/02 07:04:10;;;;;;;8.82;7.97;;;21.70;76.10;;;;;;6283518;27;89440;-71
2022/01/02 07:07:12;;;;;;;8.48;7.68;;;21.70;76.10;;;;;;6286299;27;89064;-71
2022/01/02 07:10:16;;;;;;;8.65;7.75;;;21.70;76.20;;;;;;6295566;27;88141;-71
2022/01/02 07:13:18;;;;;;;8.73;7.82;;;21.70;76.20;;;;;;6310012;27;89985;-71
2022/01/02 07:16:20;;;;;;;8.38;7.57;;;21.70;76.20;;;;;;6304367;27;89074;-70
2022/01/02 07:19:23;;;;;;;8.57;7.57;;;21.70;76.20;;;;;;6285718;27;90005;-70
2022/01/02 07:22:25;;;;;;;8.35;7.55;;;21.70;76.20;;;;;;6287365;27;88979;-70
2022/01/02 07:25:29;;;;;;;8.00;7.28;;;21.70;76.20;;;;;;6308029;27;89063;-70
2022/01/02 07:28:33;;;;;;;8.73;7.82;;;21.70;76.20;;;;;;6298507;27;89118;-71
2022/01/02 07:31:35;;;;;;;8.05;7.25;;;21.70;76.20;;;;;;6310088;27;88994;-71
2022/01/02 07:34:37;;;;;;;7.93;7.13;;;21.70;76.20;;;;;;6303936;27;88939;-70
2022/01/02 07:37:39;;;;;;;7.63;6.90;;;21.60;76.20;;;;;;6291110;27;87986;-71
2022/01/02 07:40:43;;;;;;;7.95;7.15;;;21.70;76.30;;;;;;6308703;27;88642;-71
2022/01/02 07:43:45;;;;;;;7.90;7.10;;;21.70;76.30;;;;;;6310392;27;89404;-70
2022/01/02 07:46:47;;;;;;;7.63;6.88;;;21.70;76.30;;;;;;6294215;27;89063;-69
2022/01/02 07:49:49;;;;;;;7.65;6.95;;;21.60;76.20;;;;;;6282265;27;89995;-71
2022/01/02 07:52:52;;;;;;;7.68;6.93;;;21.70;76.20;;;;;;6291144;27;87980;-70
2022/01/02 07:55:55;;;;;;;7.30;6.60;;;21.70;76.20;;;;;;6283634;27;89196;-70
2022/01/02 07:58:58;;;;;;;7.07;6.38;;;21.70;76.20;;;;;;6283855;27;89284;-70
2022/01/02 08:02:00;;;;;;;7.00;6.30;;;21.70;76.10;;;;;;6291684;27;89155;-70
2022/01/02 08:05:02;;;;;;;7.75;6.75;;;21.70;76.10;;;;;;6288846;27;89049;-70
2022/01/02 08:08:04;;;;;;;7.25;6.55;;;21.70;76.10;;;;;;6283583;27;89061;-71
2022/01/02 08:11:07;;;;;;;7.40;6.70;;;21.70;76.10;;;;;;6297128;27;88287;-71
2022/01/02 08:14:09;;;;;;;7.75;6.97;;;21.70;76.10;;;;;;6282874;27;89195;-70
2022/01/02 08:17:11;;;;;;;7.50;6.72;;;21.70;76.10;;;;;;6296848;27;89566;-71
2022/01/02 08:20:13;;;;;;;7.82;7.13;;;21.80;76.10;;;;;;6297202;27;90425;-71
2022/01/02 08:23:16;;;;;;;7.80;7.00;;;21.70;76.00;;;;;;6307423;27;89081;-71
2022/01/02 08:26:19;;;;;;;7.82;7.10;;;21.70;75.90;;;;;;6298781;27;89044;-70
2022/01/02 08:29:21;;;;;;;7.47;6.78;;;21.70;75.90;;;;;;6305784;27;89136;-70
2022/01/02 08:32:24;;;;;;;8.07;7.28;;;21.80;75.90;;;;;;6288795;27;89562;-71
2022/01/02 08:35:26;;;;;;;7.82;7.07;;;21.80;75.90;;;;;;6283869;27;87916;-70
2022/01/02 08:38:30;;;;;;;8.05;7.35;;;21.80;75.90;;;;;;6307989;27;88044;-71
2022/01/02 08:41:33;;;;;;;8.20;7.40;;;21.80;75.80;;;;;;6308558;27;88338;-70
2022/01/02 08:44:35;;;;;;;8.20;7.40;;;21.80;75.70;;;;;;6285812;27;89034;-70
2022/01/02 08:47:37;;;;;;;8.32;7.53;;;21.80;75.70;;;;;;6281740;27;89330;-70
2022/01/02 08:50:39;;;;;;;8.50;7.60;;;21.80;75.70;;;;;;6287089;27;90013;-71
2022/01/02 08:53:41;;;;;;;8.80;7.90;;;21.80;75.60;;;;;;6303205;27;89350;-71
2022/01/02 08:56:45;;;;;;;8.75;7.85;;;21.80;75.60;;;;;;6290926;27;89067;-70
2022/01/02 08:59:47;;;;;;;9.15;8.25;;;21.80;75.70;;;;;;6285408;27;89061;-71
2022/01/02 09:02:49;;;;;;;8.73;7.82;;;21.80;75.60;;;;;;6305357;27;89034;-70
2022/01/02 09:05:51;;;;;;;8.38;7.57;;;21.90;75.70;;;;;;6283543;27;89200;-71
2022/01/02 09:08:54;;;;;;;9.10;8.20;;;21.80;75.70;;;;;;6296494;27;89338;-71
2022/01/02 09:11:57;;;;;;;9.00;8.10;;;21.80;75.60;;;;;;6291981;27;88464;-71
2022/01/02 09:14:59;;;;;;;9.00;8.10;;;21.90;75.70;;;;;;6285200;27;89116;-71
2022/01/02 09:18:03;;;;;;;9.48;8.48;;;21.90;75.70;;;;;;6292689;27;89084;-71
2022/01/02 09:21:05;;;;;;;8.90;8.00;;;21.90;75.70;;;;;;6281975;27;90099;-70
2022/01/02 09:24:07;;;;;;;9.52;8.52;;;21.90;75.70;;;;;;6281749;27;89073;-70
2022/01/02 09:27:11;;;;;;;9.13;8.15;;;21.80;75.60;;;;;;6299767;27;89116;-71
2022/01/02 09:30:13;;;;;;;9.70;8.70;;;21.90;75.70;;;;;;6294550;27;89037;-71
2022/01/02 09:33:16;;;;;;;8.75;7.95;;;21.90;75.70;;;;;;6300514;27;89069;-71
2022/01/02 09:36:18;;;;;;;9.18;8.27;;;21.90;75.60;;;;;;6300144;27;89138;-70
2022/01/02 09:39:20;;;;;;;9.63;8.63;;;21.90;75.60;;;;;;6300743;27;89184;-71
2022/01/02 09:42:24;;;;;;;9.20;8.30;;;21.90;75.50;;;;;;6294337;27;87158;-70
2022/01/02 09:45:26;;;;;;;9.30;8.32;;;21.90;75.50;;;;;;6306590;27;89413;-70
2022/01/02 09:48:28;;;;;;;9.68;8.70;;;22.00;75.70;;;;;;6304625;27;89095;-71
2022/01/02 09:51:30;;;;;;;9.50;8.60;;;21.90;75.60;;;;;;6292977;27;90003;-72
2022/01/02 09:54:33;;;;;;;9.68;8.75;;;21.90;75.60;;;;;;6302841;27;89014;-70
2022/01/02 09:57:41;;;;;;;9.27;8.30;;;21.90;75.60;;;;;;6294581;27;89680;-70
2022/01/02 10:00:46;;;;;;;9.65;8.68;;;21.90;75.70;;;;;;6292576;27;88753;-71
2022/01/02 10:03:51;;;;;;;9.23;8.32;;;21.90;75.70;;;;;;6307054;27;88871;-71
2022/01/02 10:06:53;;;;;;;9.40;8.50;;;21.90;75.70;;;;;;6306621;27;89120;-71
2022/01/02 10:09:56;;;;;;;9.85;8.95;;;21.90;75.70;;;;;;6288388;27;89133;-71
2022/01/02 10:13:02;;;;;;;9.35;8.45;;;21.90;75.70;;;;;;6281177;27;88676;-71
2022/01/02 10:16:04;;;;;;;9.35;8.35;;;21.90;75.70;;;;;;6293658;27;88952;-70
2022/01/02 10:19:20;;;;;;;9.88;8.88;;;22.00;75.80;;;;;;6283016;27;89006;-71
2022/01/02 10:22:22;;;;;;;9.40;8.50;;;22.00;75.80;;;;;;6282247;27;90071;-71
2022/01/02 10:25:40;;;;;;;9.90;8.95;;;21.90;75.70;;;;;;6281722;27;89032;-71
2022/01/02 10:28:44;;;;;;;9.48;8.52;;;22.00;75.90;;;;;;6296851;27;89113;-70
2022/01/02 10:31:46;;;;;;;9.93;8.93;;;22.00;75.90;;;;;;6301215;27;89042;-71
2022/01/02 10:34:48;;;;;;;9.50;8.60;;;22.00;75.90;;;;;;6297016;27;89060;-71
2022/01/02 10:37:52;;;;;;;10.18;9.18;;;22.00;75.80;;;;;;6292848;27;89067;-71
2022/01/02 10:40:54;;;;;;;9.30;8.40;;;22.00;75.80;;;;;;6310059;27;89596;-71
2022/01/02 10:44:18;;;;;;;9.75;8.75;;;22.00;75.80;;;;;;6311636;27;88443;-70
2022/01/02 10:47:22;;;;;;;9.25;8.35;;;22.00;75.90;;;;;;6306256;27;89151;-70
2022/01/02 10:50:24;;;;;;;9.80;8.80;;;22.00;75.90;;;;;;6284187;27;89101;-70
2022/01/02 10:53:26;;;;;;;9.43;8.52;;;22.00;75.90;;;;;;6294035;27;90331;-69
2022/01/02 10:56:30;;;;;;;9.70;8.80;;;22.00;75.90;;;;;;6298056;27;89228;-71
2022/01/02 10:59:33;;;;;;;9.63;8.70;;;22.00;75.90;;;;;;6299907;27;88833;-71
2022/01/02 11:02:35;;;;;;;9.10;8.20;;;22.00;75.90;;;;;;6284049;27;89283;-71
2022/01/02 11:05:39;;;;;;;9.20;8.30;;;22.00;75.90;;;;;;6286414;27;89040;-71
2022/01/02 11:08:46;;;;;;;9.52;8.63;;;22.00;75.90;;;;;;6297952;27;89499;-72
2022/01/02 11:11:48;;;;;;;9.00;8.20;;;22.00;75.90;;;;;;6284592;27;89180;-71
2022/01/02 11:14:52;;;;;;;10.00;9.00;;;22.10;76.10;;;;;;6291635;27;87258;-71
2022/01/02 11:17:55;;;;;;;8.88;8.07;;;22.00;76.00;;;;;;6304429;27;88978;-71
2022/01/02 11:20:57;;;;;;;9.65;8.75;;;22.00;76.00;;;;;;6303229;27;89035;-69
2022/01/02 11:24:07;;;;;;;9.75;8.80;;;22.00;76.10;;;;;;6290416;27;90144;-71
2022/01/02 11:27:16;;;;;;;9.30;8.40;;;22.00;76.00;;;;;;6284014;27;88035;-71
2022/01/02 11:30:42;;;;;;;8.93;8.13;;;22.10;76.10;;;;;;6295868;27;89151;-71
2022/01/02 11:33:44;;;;;;;9.52;8.60;;;22.10;76.10;;;;;;6296650;27;89032;-71
2022/01/02 11:36:46;;;;;;;9.40;8.50;;;22.00;76.00;;;;;;6294821;27;89357;-70
2022/01/02 11:39:52;;;;;;;9.13;8.23;;;22.10;76.10;;;;;;6285563;27;89422;-71
2022/01/02 11:42:54;;;;;;;9.27;8.43;;;22.00;76.00;;;;;;6292137;27;89003;-69
2022/01/02 11:46:15;;;;;;;9.40;8.50;;;22.10;76.10;;;;;;6290167;27;88320;-71
2022/01/02 11:49:28;;;;;;;9.35;8.45;;;22.10;76.10;;;;;;6284044;27;89402;-71
2022/01/02 11:52:32;;;;;;;8.77;7.97;;;22.10;76.10;;;;;;6292703;27;89118;-71
2022/01/02 11:55:34;;;;;;;9.77;8.77;;;22.00;76.10;;;;;;6288718;27;90268;-70
2022/01/02 11:58:53;;;;;;;8.98;8.07;;;22.00;76.10;;;;;;6282859;27;89198;-71
2022/01/02 12:01:58;;;;;;;8.80;7.97;;;22.00;76.20;;;;;;6298312;27;89231;-69
2022/01/02 12:05:12;;;;;;;9.30;8.40;;;22.00;76.20;;;;;;6283149;27;89131;-70
2022/01/02 12:08:33;;;;;;;8.65;7.85;;;22.00;76.20;;;;;;6302177;27;89041;-71
2022/01/02 12:11:59;;;;;;;8.93;8.02;;;22.10;76.20;;;;;;6296952;27;89136;-71
2022/01/02 12:15:02;;;;;;;8.48;7.68;;;22.00;76.20;;;;;;6285915;27;89186;-71
2022/01/02 12:18:11;;;;;;;9.30;8.40;;;22.00;76.20;;;;;;6304127;27;88344;-72
2022/01/02 12:21:14;;;;;;;9.00;8.10;;;22.00;76.20;;;;;;6288374;27;89054;-71
2022/01/02 12:24:30;;;;;;;8.48;7.68;;;22.10;76.30;;;;;;6296033;27;89364;-71
2022/01/02 12:27:32;;;;;;;9.10;8.20;;;22.10;76.20;;;;;;6290337;27;90354;-71
2022/01/02 12:30:40;;;;;;;8.45;7.63;;;22.10;76.20;;;;;;6307718;27;88017;-71
2022/01/02 12:33:44;;;;;;;9.43;8.52;;;22.10;76.20;;;;;;6319621;27;89456;-71
2022/01/02 12:36:48;;;;;;;9.35;8.45;;;22.10;76.20;;;;;;6294478;27;89066;-71
2022/01/02 12:39:50;;;;;;;8.88;8.07;;;22.10;76.30;;;;;;6285266;27;88951;-71
2022/01/02 12:42:53;;;;;;;8.60;7.80;;;22.10;76.40;;;;;;6291313;27;89300;-71
2022/01/02 12:45:55;;;;;;;8.45;7.65;;;22.10;76.40;;;;;;6293732;27;89307;-71
2022/01/02 12:48:58;;;;;;;8.30;7.50;;;22.10;76.30;;;;;;6293936;27;87139;-71
2022/01/02 12:52:03;;;;;;;8.60;7.80;;;22.10;76.40;;;;;;6303377;27;88089;-71
2022/01/02 12:55:10;;;;;;;8.52;7.68;;;22.10;76.30;;;;;;6290341;27;89278;-71
2022/01/02 12:58:14;;;;;;;7.93;7.22;;;22.10;76.30;;;;;;6283308;27;90023;-71
2022/01/02 13:01:16;;;;;;;8.25;7.45;;;22.10;76.40;;;;;;6283201;27;89154;-71
2022/01/02 13:04:22;;;;;;;7.57;6.88;;;22.10;76.40;;;;;;6292706;27;89079;-70
2022/01/02 13:07:25;;;;;;;8.40;7.60;;;22.00;76.30;;;;;;6295867;27;89070;-71
2022/01/02 13:10:27;;;;;;;8.50;7.57;;;22.10;76.40;;;;;;6282309;27;89332;-72
2022/01/02 13:13:30;;;;;;;7.90;7.20;;;22.00;76.40;;;;;;6291890;27;89032;-71
2022/01/02 13:16:32;;;;;;;8.02;7.32;;;22.10;76.40;;;;;;6298532;27;88059;-71
2022/01/02 13:19:38;;;;;;;8.68;7.88;;;22.10;76.40;;;;;;6282020;27;87272;-71
2022/01/02 13:22:42;;;;;;;7.97;7.22;;;22.10;76.30;;;;;;6300525;27;89111;-71
2022/01/02 13:25:45;;;;;;;8.30;7.50;;;22.10;76.30;;;;;;6290770;27;88990;-72
2022/01/02 13:28:48;;;;;;;8.10;7.30;;;22.10;76.30;;;;;;6281010;27;88854;-72
2022/01/02 13:31:51;;;;;;;8.15;7.30;;;22.10;76.30;;;;;;6299971;27;89542;-72
2022/01/02 13:35:03;;;;;;;8.35;7.47;;;22.10;76.30;;;;;;6314720;27;89105;-72
2022/01/02 13:38:06;;;;;;;7.93;7.13;;;22.10;76.40;;;;;;6300336;27;89007;-74
2022/01/02 13:41:11;;;;;;;8.15;7.45;;;22.10;76.60;;;;;;6284948;27;89125;-74
2022/01/02 13:44:17;;;;;;;7.28;6.57;;;22.10;76.60;;;;;;6293378;27;89110;-74
2022/01/02 13:47:19;;;;;;;8.15;7.35;;;22.10;76.60;;;;;;6297339;27;89202;-73
2022/01/02 13:50:35;;;;;;;8.30;7.50;;;22.10;76.70;;;;;;6288409;27;88323;-72
2022/01/02 13:53:39;;;;;;;7.80;7.03;;;22.00;76.70;;;;;;6280518;27;89174;-72
2022/01/02 13:56:56;;;;;;;8.07;7.25;;;22.10;76.80;;;;;;6285154;27;89113;-72
2022/01/02 14:00:15;;;;;;;8.52;7.15;;;22.10;76.90;;;;;;6277900;27;89205;-72
2022/01/02 14:03:32;;;;;;;8.10;7.30;;;22.10;76.90;;;;;;6276832;27;89464;-71
2022/01/02 14:06:39;;;;;;;8.45;7.60;;;22.10;76.90;;;;;;6297654;27;89123;-72
2022/01/02 14:09:50;;;;;;;8.10;7.35;;;22.10;76.90;;;;;;6305430;27;87932;-72
2022/01/02 14:12:58;;;;;;;8.65;7.75;;;22.10;76.90;;;;;;6303224;27;87983;-72
2022/01/02 14:16:00;;;;;;;8.50;7.68;;;22.10;76.80;;;;;;6290762;27;87962;-72
2022/01/02 14:19:04;;;;;;;8.65;7.85;;;22.10;76.80;;;;;;6303131;27;89295;-73
2022/01/02 14:22:26;;;;;;;8.88;7.97;;;22.10;76.80;;;;;;6293171;27;88347;-71
2022/01/02 14:25:29;;;;;;;8.73;7.80;;;22.10;76.90;;;;;;6288893;27;89145;-71
2022/01/02 14:28:31;;;;;;;8.90;7.85;;;22.10;76.80;;;;;;6291938;27;89082;-71
2022/01/02 14:31:33;;;;;;;9.00;8.10;;;22.10;76.80;;;;;;6291358;27;90114;-72
2022/01/02 14:34:36;;;;;;;8.43;7.28;;;22.10;76.80;;;;;;6303265;27;87852;-71
2022/01/02 14:37:39;;;;;;;8.75;7.85;;;22.10;76.80;;;;;;6285338;27;89086;-72
2022/01/02 14:40:41;;;;;;;8.48;7.68;;;22.10;76.80;;;;;;6280923;27;89210;-70
2022/01/02 14:43:43;;;;;;;8.80;7.95;;;22.10;76.90;;;;;;6291956;27;87949;-71
2022/01/02 14:46:47;;;;;;;8.98;8.10;;;22.10;76.90;;;;;;6292586;27;88607;-73
2022/01/02 14:49:49;;;;;;;8.80;8.00;;;22.10;76.90;;;;;;6284205;27;89099;-72
2022/01/02 14:52:52;;;;;;;8.57;7.78;;;22.10;76.90;;;;;;6304927;27;88310;-72
2022/01/02 14:55:54;;;;;;;9.20;8.30;;;22.10;76.90;;;;;;6278976;27;89366;-72
2022/01/02 14:58:56;;;;;;;8.52;7.72;;;22.10;76.90;;;;;;6302445;27;89096;-72
2022/01/02 15:01:59;;;;;;;8.95;8.05;;;22.10;76.90;;;;;;6293500;27;90173;-72
2022/01/02 15:05:01;;;;;;;8.85;7.97;;;22.10;77.00;;;;;;6294597;27;89648;-72
2022/01/02 15:08:05;;;;;;;9.05;8.25;;;22.10;77.10;;;;;;6305656;27;89397;-72
2022/01/02 15:11:07;;;;;;;8.73;7.82;;;22.10;77.00;;;;;;6306813;27;89120;-72
2022/01/02 15:14:09;;;;;;;8.63;7.82;;;22.10;77.20;;;;;;6286955;27;89565;-72
2022/01/02 15:17:11;;;;;;;8.50;7.70;;;22.10;77.10;;;;;;6309802;27;89517;-72
2022/01/02 15:20:13;;;;;;;8.65;7.85;;;22.10;77.10;;;;;;6308913;27;89100;-71
2022/01/02 15:23:18;;;;;;;8.77;7.78;;;22.10;77.20;;;;;;6299937;27;87224;-71
2022/01/02 15:26:20;;;;;;;8.50;7.63;;;22.10;77.20;;;;;;6284563;27;89151;-71
2022/01/02 15:29:22;;;;;;;8.50;7.60;;;22.10;77.20;;;;;;6297204;27;88995;-71
2022/01/02 15:32:24;;;;;;;8.02;7.22;;;22.10;77.20;;;;;;6290852;27;89953;-73
2022/01/02 15:35:26;;;;;;;8.23;7.35;;;22.20;77.20;;;;;;6308955;27;89061;-71
2022/01/02 15:38:30;;;;;;;8.63;7.78;;;22.10;77.20;;;;;;6296704;27;89354;-72
2022/01/02 15:41:33;;;;;;;8.32;7.53;;;22.10;77.20;;;;;;6299394;27;89078;-72
2022/01/02 15:44:35;;;;;;;8.38;7.57;;;22.10;77.20;;;;;;6296995;27;89069;-72
2022/01/02 15:47:37;;;;;;;8.65;7.78;;;22.10;77.10;;;;;;6296446;27;89026;-73
2022/01/02 15:50:39;;;;;;;8.18;7.38;;;22.10;77.10;;;;;;6285059;27;89419;-72